Time;durP1;ratioP1;P1;durP2;ratioP2;P2;SDS_P1;SDS_P2;PMS_P1;PMS_P2;Temp;Humidity;BMP_temperature;BMP_pressure;BME280_temperature;BME280_humidity;BME280_pressure;Samples;Min_cycle;Max_cycle;Signal;HPM_P1;HPM_P2
2021/12/20 00:00:47;;;;;;;;;;;20.80;43.50;;;;;;4956666;28;20017;-58
2021/12/20 00:03:14;;;;;;;;;;;20.80;43.50;;;;;;4968377;28;19922;-61
2021/12/20 00:05:41;;;;;;;;;;;20.80;43.50;;;;;;4959853;28;19945;-60
2021/12/20 00:08:07;;;;;;;;;;;20.80;43.50;;;;;;4952981;28;20414;-61
2021/12/20 00:10:35;;;;;;;;;;;20.80;43.40;;;;;;4950079;28;20001;-61
2021/12/20 00:13:02;;;;;;;;;;;20.80;43.40;;;;;;4933405;29;19923;-63
2021/12/20 00:15:30;;;;;;;;;;;20.80;43.40;;;;;;4965512;28;19922;-60
2021/12/20 00:17:57;;;;;;;;;;;20.80;43.40;;;;;;4967743;28;19949;-62
2021/12/20 00:20:24;;;;;;;;;;;20.80;43.40;;;;;;4967518;28;19968;-65
2021/12/20 00:22:51;;;;;;;;;;;20.80;43.40;;;;;;4953538;28;19926;-61
2021/12/20 00:25:17;;;;;;;;;;;20.80;43.40;;;;;;4956623;28;20411;-61
2021/12/20 00:27:44;;;;;;;;;;;20.70;43.20;;;;;;4950625;28;20332;-61
2021/12/20 00:30:11;;;;;;;;;;;20.80;43.30;;;;;;4944592;28;19958;-59
2021/12/20 00:32:39;;;;;;;;;;;20.70;43.20;;;;;;4933603;29;19930;-65
2021/12/20 00:35:07;;;;;;;;;;;20.70;43.20;;;;;;4948590;28;19961;-60
2021/12/20 00:40:22;;;;;;;;;;;20.70;43.20;;;;;;4952844;29;20025;-64
2021/12/20 00:42:49;;;;;;;;;;;20.70;43.20;;;;;;4952549;28;19949;-63
2021/12/20 00:45:15;;;;;;;;;;;20.70;43.20;;;;;;4952396;28;20021;-61
2021/12/20 00:47:43;;;;;;;;;;;20.70;43.10;;;;;;4953632;28;19973;-61
2021/12/20 00:50:11;;;;;;;;;;;20.70;43.20;;;;;;4958369;28;19922;-61
2021/12/20 00:52:38;;;;;;;;;;;20.70;43.10;;;;;;4954164;28;20023;-65
2021/12/20 00:55:05;;;;;;;;;;;20.70;43.20;;;;;;4971332;28;19923;-66
2021/12/20 00:57:32;;;;;;;;;;;20.70;43.10;;;;;;4952979;28;19926;-60
2021/12/20 00:59:58;;;;;;;;;;;20.70;43.10;;;;;;4955461;28;19977;-63
2021/12/20 01:02:25;;;;;;;;;;;20.70;43.10;;;;;;4954107;29;19923;-59
2021/12/20 01:04:53;;;;;;;;;;;20.70;43.00;;;;;;4957321;28;19926;-60
2021/12/20 01:07:20;;;;;;;;;;;20.70;43.00;;;;;;4955888;28;20025;-59
2021/12/20 01:09:47;;;;;;;;;;;20.70;43.00;;;;;;4965413;28;20299;-63
2021/12/20 01:12:18;;;;;;;;;;;20.70;43.00;;;;;;4953435;29;20340;-60
2021/12/20 01:14:45;;;;;;;;;;;20.70;42.90;;;;;;4954470;28;19922;-64
2021/12/20 01:17:12;;;;;;;;;;;20.70;42.90;;;;;;4972786;28;19981;-63
2021/12/20 01:19:39;;;;;;;;;;;20.70;42.90;;;;;;4973504;28;20371;-63
2021/12/20 01:22:07;;;;;;;;;;;20.70;42.90;;;;;;4953867;28;19927;-61
2021/12/20 01:24:34;;;;;;;;;;;20.70;42.90;;;;;;4954085;29;19927;-65
2021/12/20 01:27:01;;;;;;;;;;;20.70;42.90;;;;;;4967732;28;19930;-60
2021/12/20 01:29:27;;;;;;;;;;;20.70;42.90;;;;;;4972168;28;19922;-63
2021/12/20 01:31:54;;;;;;;;;;;20.70;42.80;;;;;;4953910;28;19977;-63
2021/12/20 01:34:21;;;;;;;;;;;20.70;42.80;;;;;;4966025;28;20016;-63
2021/12/20 01:36:47;;;;;;;;;;;20.70;42.80;;;;;;4974428;28;19926;-60
2021/12/20 01:39:15;;;;;;;;;;;20.70;42.80;;;;;;4957482;28;19934;-60
2021/12/20 01:41:43;;;;;;;;;;;20.70;42.80;;;;;;4956080;28;19922;-61
2021/12/20 01:44:10;;;;;;;;;;;20.70;42.70;;;;;;4954127;29;19930;-61
2021/12/20 01:46:36;;;;;;;;;;;20.70;42.70;;;;;;4962764;28;20418;-61
2021/12/20 01:49:06;;;;;;;;;;;20.70;42.70;;;;;;4972902;28;20016;-59
2021/12/20 01:51:47;;;;;;;;;;;20.70;42.70;;;;;;4969688;28;20012;-60
2021/12/20 01:54:13;;;;;;;;;;;20.70;42.70;;;;;;4966295;28;19930;-58
2021/12/20 01:56:43;;;;;;;;;;;20.70;42.70;;;;;;4979314;28;19926;-62
2021/12/20 01:59:10;;;;;;;;;;;20.70;42.70;;;;;;4965611;28;19926;-61
2021/12/20 02:01:37;;;;;;;;;;;20.70;42.70;;;;;;4959710;28;19929;-60
2021/12/20 02:04:07;;;;;;;;;;;20.70;42.70;;;;;;4953867;28;19922;-60
2021/12/20 02:06:35;;;;;;;;;;;20.70;42.60;;;;;;4952189;28;20477;-64
2021/12/20 02:09:03;;;;;;;;;;;20.70;42.60;;;;;;4954053;28;20372;-58
2021/12/20 02:11:30;;;;;;;;;;;20.70;42.60;;;;;;4954864;28;19949;-60
2021/12/20 02:13:58;;;;;;;;;;;20.70;42.60;;;;;;4969462;28;20309;-62
2021/12/20 02:16:25;;;;;;;;;;;20.70;42.60;;;;;;4957316;28;19929;-62
2021/12/20 02:18:52;;;;;;;;;;;20.70;42.60;;;;;;4972596;28;20415;-60
2021/12/20 02:21:20;;;;;;;;;;;20.70;42.50;;;;;;4965915;28;20428;-58
2021/12/20 02:23:47;;;;;;;;;;;20.70;42.50;;;;;;4972264;28;20020;-63
2021/12/20 02:26:17;;;;;;;;;;;20.70;42.50;;;;;;4971764;28;20036;-60
2021/12/20 02:28:47;;;;;;;;;;;20.70;42.50;;;;;;4952542;29;19922;-60
2021/12/20 02:39:42;;;;;;;;;;;20.70;42.40;;;;;;4913497;29;19929;-61
2021/12/20 02:42:12;;;;;;;;;;;20.70;42.40;;;;;;4897744;29;20439;-59
2021/12/20 02:44:42;;;;;;;;;;;20.70;42.40;;;;;;4931282;29;19930;-62
2021/12/20 02:47:15;;;;;;;;;;;20.60;42.30;;;;;;4958773;28;19953;-61
2021/12/20 02:49:43;;;;;;;;;;;20.60;42.30;;;;;;4954096;28;19945;-61
2021/12/20 02:52:12;;;;;;;;;;;20.60;42.30;;;;;;4958850;28;20014;-60
2021/12/20 02:54:38;;;;;;;;;;;20.70;42.30;;;;;;4968877;28;20307;-58
2021/12/20 02:57:05;;;;;;;;;;;20.70;42.30;;;;;;4958807;28;19922;-60
2021/12/20 02:59:32;;;;;;;;;;;20.60;42.20;;;;;;4966336;28;19923;-58
2021/12/20 03:02:00;;;;;;;;;;;20.60;42.20;;;;;;4935917;28;20009;-60
2021/12/20 03:04:26;;;;;;;;;;;20.60;42.20;;;;;;4952908;28;19922;-60
2021/12/20 03:06:54;;;;;;;;;;;20.60;42.20;;;;;;4952762;29;19965;-60
2021/12/20 03:09:25;;;;;;;;;;;20.60;42.20;;;;;;4932832;29;19949;-63
2021/12/20 03:11:55;;;;;;;;;;;20.60;42.20;;;;;;4949613;29;20280;-62
2021/12/20 03:14:26;;;;;;;;;;;20.60;42.10;;;;;;4987087;28;19922;-61
2021/12/20 03:16:52;;;;;;;;;;;20.60;42.10;;;;;;4961632;28;20423;-63
2021/12/20 03:19:19;;;;;;;;;;;20.60;42.10;;;;;;4971482;28;19926;-60
2021/12/20 03:21:46;;;;;;;;;;;20.60;42.10;;;;;;4961957;28;19929;-61
2021/12/20 03:24:13;;;;;;;;;;;20.60;42.10;;;;;;4937921;28;20374;-64
2021/12/20 03:26:41;;;;;;;;;;;20.60;42.00;;;;;;4932906;29;20394;-60
2021/12/20 03:29:07;;;;;;;;;;;20.60;42.00;;;;;;4962959;28;19922;-61
2021/12/20 03:31:35;;;;;;;;;;;20.60;42.00;;;;;;4971584;28;19973;-60
2021/12/20 03:34:01;;;;;;;;;;;20.60;42.00;;;;;;4951443;28;19927;-62
2021/12/20 03:36:28;;;;;;;;;;;20.60;42.00;;;;;;4939303;29;19985;-60
2021/12/20 03:38:55;;;;;;;;;;;20.60;42.00;;;;;;4953377;28;19931;-60
2021/12/20 03:41:21;;;;;;;;;;;20.60;42.00;;;;;;4952924;28;19957;-62
2021/12/20 03:43:49;;;;;;;;;;;20.60;41.90;;;;;;4960746;28;19985;-61
2021/12/20 03:46:16;;;;;;;;;;;20.60;41.90;;;;;;4966379;28;19922;-57
2021/12/20 03:48:43;;;;;;;;;;;20.60;41.90;;;;;;4960553;28;20017;-60
2021/12/20 03:51:10;;;;;;;;;;;20.60;41.90;;;;;;4969374;28;19928;-60
2021/12/20 03:53:37;;;;;;;;;;;20.60;41.90;;;;;;4952029;28;19922;-60
2021/12/20 03:56:04;;;;;;;;;;;20.60;41.80;;;;;;4952431;29;19957;-61
2021/12/20 03:58:31;;;;;;;;;;;20.60;41.80;;;;;;4956521;28;20319;-61
2021/12/20 04:01:00;;;;;;;;;;;20.60;41.80;;;;;;4963177;28;19933;-61
2021/12/20 04:03:29;;;;;;;;;;;20.60;41.90;;;;;;4938633;28;19922;-60
2021/12/20 04:05:56;;;;;;;;;;;20.60;41.80;;;;;;4986917;28;19980;-64
2021/12/20 04:08:22;;;;;;;;;;;20.60;41.80;;;;;;4961249;28;19922;-61
2021/12/20 04:10:49;;;;;;;;;;;20.60;41.80;;;;;;4968045;28;19922;-61
2021/12/20 04:13:16;;;;;;;;;;;20.60;41.80;;;;;;4952210;29;19922;-61
2021/12/20 04:15:43;;;;;;;;;;;20.60;41.70;;;;;;4951447;29;20017;-61
2021/12/20 04:18:11;;;;;;;;;;;20.60;41.70;;;;;;4953020;28;20013;-61
2021/12/20 04:20:37;;;;;;;;;;;20.60;41.70;;;;;;4967972;28;20364;-61
2021/12/20 04:23:04;;;;;;;;;;;20.60;41.70;;;;;;4957372;28;19922;-56
2021/12/20 04:25:32;;;;;;;;;;;20.60;41.70;;;;;;4970725;28;20386;-63
2021/12/20 04:27:59;;;;;;;;;;;20.60;41.70;;;;;;4958778;28;20050;-61
2021/12/20 04:30:28;;;;;;;;;;;20.60;41.70;;;;;;4956560;28;19923;-60
2021/12/20 04:32:56;;;;;;;;;;;20.60;41.70;;;;;;4959314;28;19922;-59
2021/12/20 04:35:24;;;;;;;;;;;20.60;41.60;;;;;;4956362;28;19933;-61
2021/12/20 04:37:51;;;;;;;;;;;20.60;41.60;;;;;;4945756;29;20032;-60
2021/12/20 04:40:20;;;;;;;;;;;20.60;41.60;;;;;;4954903;28;19977;-61
2021/12/20 04:42:47;;;;;;;;;;;20.60;41.60;;;;;;4956604;28;19933;-61
2021/12/20 04:45:14;;;;;;;;;;;20.60;41.60;;;;;;4970722;28;19922;-65
2021/12/20 04:47:40;;;;;;;;;;;20.60;41.60;;;;;;4955055;28;19926;-63
2021/12/20 04:50:08;;;;;;;;;;;20.60;41.60;;;;;;4979499;28;19941;-62
2021/12/20 04:52:36;;;;;;;;;;;20.60;41.60;;;;;;4962997;28;20386;-58
2021/12/20 04:55:03;;;;;;;;;;;20.60;41.50;;;;;;4947173;29;19927;-66
2021/12/20 04:57:30;;;;;;;;;;;20.60;41.60;;;;;;4946079;29;19929;-61
2021/12/20 04:59:57;;;;;;;;;;;20.50;41.40;;;;;;4961867;28;19922;-59
2021/12/20 05:02:24;;;;;;;;;;;20.60;41.50;;;;;;4964814;28;19923;-63
2021/12/20 05:04:50;;;;;;;;;;;20.60;41.50;;;;;;4958899;28;20511;-61
2021/12/20 05:07:17;;;;;;;;;;;20.60;41.50;;;;;;4966846;28;19954;-60
2021/12/20 05:09:45;;;;;;;;;;;20.60;41.40;;;;;;4973850;28;19922;-61
2021/12/20 05:12:14;;;;;;;;;;;20.60;41.40;;;;;;4966616;28;19929;-67
2021/12/20 05:14:42;;;;;;;;;;;20.50;41.30;;;;;;4953145;28;20336;-62
2021/12/20 05:17:09;;;;;;;;;;;20.60;41.40;;;;;;4941258;29;19922;-62
2021/12/20 05:19:35;;;;;;;;;;;20.60;41.40;;;;;;4953825;28;19922;-59
2021/12/20 05:22:02;;;;;;;;;;;20.60;41.40;;;;;;4948632;28;20136;-64
2021/12/20 05:24:29;;;;;;;;;;;20.60;41.40;;;;;;4936211;28;20333;-61
2021/12/20 05:26:57;;;;;;;;;;;20.60;41.30;;;;;;4966719;28;20014;-59
2021/12/20 05:29:25;;;;;;;;;;;20.60;41.40;;;;;;4954048;29;19922;-62
2021/12/20 05:31:51;;;;;;;;;;;20.60;41.30;;;;;;4954333;28;20001;-59
2021/12/20 05:34:18;;;;;;;;;;;20.60;41.30;;;;;;4956869;28;19956;-64
2021/12/20 05:36:45;;;;;;;;;;;20.60;41.30;;;;;;4959253;28;20017;-59
2021/12/20 05:39:12;;;;;;;;;;;20.60;41.30;;;;;;4954107;29;19974;-59
2021/12/20 05:41:39;;;;;;;;;;;20.50;41.10;;;;;;4965791;28;20305;-61
2021/12/20 05:44:07;;;;;;;;;;;20.50;41.10;;;;;;4953844;29;20295;-59
2021/12/20 05:46:34;;;;;;;;;;;20.50;41.10;;;;;;4964172;28;19932;-59
2021/12/20 05:49:01;;;;;;;;;;;20.50;41.10;;;;;;4953761;29;20017;-63
2021/12/20 05:51:28;;;;;;;;;;;20.50;41.10;;;;;;4954766;28;20268;-60
2021/12/20 05:53:54;;;;;;;;;;;20.50;41.10;;;;;;4934986;29;19923;-60
2021/12/20 05:56:21;;;;;;;;;;;20.50;41.10;;;;;;4944429;28;19986;-60
2021/12/20 05:58:48;;;;;;;;;;;20.50;41.10;;;;;;4936039;29;19974;-60
2021/12/20 06:01:16;;;;;;;;;;;20.50;41.00;;;;;;4936115;28;19922;-59
2021/12/20 06:03:43;;;;;;;;;;;20.50;41.00;;;;;;4934285;29;19927;-60
2021/12/20 06:06:09;;;;;;;;;;;20.50;41.00;;;;;;4942755;28;19977;-62
2021/12/20 06:08:36;;;;;;;;;;;20.50;41.00;;;;;;4972066;28;19923;-64
2021/12/20 06:11:03;;;;;;;;;;;20.50;41.00;;;;;;4969643;28;20036;-60
2021/12/20 06:13:30;;;;;;;;;;;20.50;41.00;;;;;;4939458;29;20365;-60
2021/12/20 06:15:56;;;;;;;;;;;20.50;40.90;;;;;;4946248;28;20372;-59
2021/12/20 06:18:25;;;;;;;;;;;20.50;41.00;;;;;;4940379;29;19923;-59
2021/12/20 06:20:52;;;;;;;;;;;20.50;40.90;;;;;;4934920;29;19966;-62
2021/12/20 06:23:18;;;;;;;;;;;20.50;40.90;;;;;;4953737;28;19969;-60
2021/12/20 06:25:45;;;;;;;;;;;20.50;40.90;;;;;;4952801;29;19949;-60
2021/12/20 06:28:12;;;;;;;;;;;20.50;40.90;;;;;;4958229;28;20390;-60
2021/12/20 06:30:39;;;;;;;;;;;20.50;40.90;;;;;;4952744;28;19962;-62
2021/12/20 06:33:06;;;;;;;;;;;20.50;40.90;;;;;;4957893;28;20261;-66
2021/12/20 06:35:34;;;;;;;;;;;20.50;40.90;;;;;;4952542;29;19927;-64
2021/12/20 06:38:03;;;;;;;;;;;20.50;40.90;;;;;;4963841;28;20009;-60
2021/12/20 06:40:30;;;;;;;;;;;20.50;40.90;;;;;;4972985;28;20311;-62
2021/12/20 06:42:57;;;;;;;;;;;20.50;40.80;;;;;;4956767;28;19926;-60
2021/12/20 06:45:24;;;;;;;;;;;20.50;40.80;;;;;;4952052;28;20254;-58
2021/12/20 06:47:51;;;;;;;;;;;20.50;40.80;;;;;;4944529;28;19966;-60
2021/12/20 06:50:18;;;;;;;;;;;20.50;40.70;;;;;;4944364;29;19922;-60
2021/12/20 06:52:46;;;;;;;;;;;20.50;40.70;;;;;;4952245;28;20365;-61
2021/12/20 06:55:13;;;;;;;;;;;20.50;40.70;;;;;;4953430;28;19923;-67
2021/12/20 06:57:40;;;;;;;;;;;20.50;40.70;;;;;;4952691;28;19923;-59
2021/12/20 07:00:07;;;;;;;;;;;20.50;40.70;;;;;;4952414;29;19922;-59
2021/12/20 07:02:34;;;;;;;;;;;20.50;40.70;;;;;;4952959;28;19962;-56
2021/12/20 07:05:01;;;;;;;;;;;20.50;40.70;;;;;;4952250;28;20013;-59
2021/12/20 07:07:28;;;;;;;;;;;20.50;40.60;;;;;;4949871;28;20400;-61
2021/12/20 07:09:57;;;;;;;;;;;20.50;40.60;;;;;;4945626;29;19961;-60
2021/12/20 07:12:23;;;;;;;;;;;20.50;40.70;;;;;;4954433;28;19989;-61
2021/12/20 07:14:52;;;;;;;;;;;20.50;40.60;;;;;;4951130;28;20391;-61
2021/12/20 07:17:19;;;;;;;;;;;20.50;40.60;;;;;;4951764;28;19926;-56
2021/12/20 07:19:46;;;;;;;;;;;20.50;40.50;;;;;;4952024;29;20017;-60
2021/12/20 07:22:12;;;;;;;;;;;20.50;40.50;;;;;;4952879;28;19928;-60
2021/12/20 07:24:39;;;;;;;;;;;20.50;40.50;;;;;;4956398;28;20017;-67
2021/12/20 07:27:07;;;;;;;;;;;20.50;40.50;;;;;;4951972;29;19927;-61
2021/12/20 07:29:34;;;;;;;;;;;20.50;40.50;;;;;;4953126;28;19932;-67
2021/12/20 07:32:01;;;;;;;;;;;20.50;40.50;;;;;;4945814;29;19973;-59
2021/12/20 07:34:27;;;;;;;;;;;20.50;40.50;;;;;;4946260;28;20316;-66
2021/12/20 07:36:54;;;;;;;;;;;20.50;40.50;;;;;;4950906;29;20018;-61
2021/12/20 07:39:21;;;;;;;;;;;20.50;40.50;;;;;;4944448;28;20435;-61
2021/12/20 07:41:48;;;;;;;;;;;20.50;40.50;;;;;;4942313;29;20396;-64
2021/12/20 07:44:17;;;;;;;;;;;20.50;40.50;;;;;;4952525;28;19938;-60
2021/12/20 07:46:44;;;;;;;;;;;20.50;40.40;;;;;;4950797;29;20403;-62
2021/12/20 07:49:10;;;;;;;;;;;20.50;40.40;;;;;;4945822;28;20352;-64
2021/12/20 07:51:37;;;;;;;;;;;20.50;40.40;;;;;;4942201;29;20257;-61
2021/12/20 07:54:04;;;;;;;;;;;20.50;40.40;;;;;;4950589;28;19942;-60
2021/12/20 07:56:31;;;;;;;;;;;20.50;40.40;;;;;;4941871;28;19932;-61
2021/12/20 07:58:57;;;;;;;;;;;20.50;40.40;;;;;;4947758;28;19926;-59
2021/12/20 08:01:26;;;;;;;;;;;20.50;40.40;;;;;;4943329;28;20431;-60
2021/12/20 08:03:53;;;;;;;;;;;20.50;40.40;;;;;;4960145;28;19922;-61
2021/12/20 08:06:20;;;;;;;;;;;20.50;40.30;;;;;;4980403;28;20000;-58
2021/12/20 08:08:47;;;;;;;;;;;20.50;40.30;;;;;;4958315;28;19956;-66
2021/12/20 08:11:13;;;;;;;;;;;20.50;40.30;;;;;;4958970;28;19929;-64
2021/12/20 08:13:44;;;;;;;;;;;20.50;40.30;;;;;;4957371;28;19926;-58
2021/12/20 08:16:11;;;;;;;;;;;20.50;40.40;;;;;;4955053;28;20009;-65
2021/12/20 08:18:39;;;;;;;;;;;20.50;40.40;;;;;;4964960;28;19922;-60
2021/12/20 08:21:06;;;;;;;;;;;20.50;40.40;;;;;;4964660;28;20387;-62
2021/12/20 08:23:33;;;;;;;;;;;20.50;40.40;;;;;;4950997;28;20412;-62
2021/12/20 08:26:00;;;;;;;;;;;20.50;40.40;;;;;;4955915;28;19954;-60
2021/12/20 08:28:27;;;;;;;;;;;20.50;40.50;;;;;;4961318;28;20037;-59
2021/12/20 08:30:54;;;;;;;;;;;20.50;40.50;;;;;;4957389;28;19941;-57
2021/12/20 08:33:21;;;;;;;;;;;20.50;40.50;;;;;;4964777;28;20352;-57
2021/12/20 08:35:50;;;;;;;;;;;20.50;40.50;;;;;;4953966;28;19989;-60
2021/12/20 08:38:16;;;;;;;;;;;20.50;40.50;;;;;;4962635;28;19961;-57
2021/12/20 08:40:43;;;;;;;;;;;20.50;40.50;;;;;;4960805;28;19938;-53
2021/12/20 08:43:10;;;;;;;;;;;20.50;40.50;;;;;;4952898;28;20411;-63
2021/12/20 08:45:37;;;;;;;;;;;20.50;40.50;;;;;;4953539;28;20291;-56
2021/12/20 08:48:04;;;;;;;;;;;20.50;40.50;;;;;;4939296;29;20464;-62
2021/12/20 08:50:31;;;;;;;;;;;20.50;40.50;;;;;;4959904;28;19922;-58
2021/12/20 08:52:59;;;;;;;;;;;20.50;40.50;;;;;;4962257;28;19926;-52
2021/12/20 08:55:26;;;;;;;;;;;20.50;41.00;;;;;;4957247;28;19922;-63
2021/12/20 08:57:53;;;;;;;;;;;20.50;40.50;;;;;;4965555;28;20016;-52
2021/12/20 09:00:20;;;;;;;;;;;20.50;40.40;;;;;;4963490;28;20000;-60
2021/12/20 09:02:47;;;;;;;;;;;20.50;40.40;;;;;;4960247;28;19929;-53
2021/12/20 09:05:14;;;;;;;;;;;20.50;40.50;;;;;;4959455;28;19926;-55
2021/12/20 09:07:41;;;;;;;;;;;20.50;40.40;;;;;;4961405;28;20025;-59
2021/12/20 09:10:10;;;;;;;;;;;20.50;40.40;;;;;;4955919;28;19948;-61
2021/12/20 09:12:36;;;;;;;;;;;20.50;40.40;;;;;;4947183;28;19937;-63
2021/12/20 09:15:04;;;;;;;;;;;20.50;40.40;;;;;;4951363;28;19974;-59
2021/12/20 09:17:30;;;;;;;;;;;20.50;40.40;;;;;;4958441;28;20024;-56
2021/12/20 09:19:59;;;;;;;;;;;20.50;40.40;;;;;;4957783;28;19930;-59
2021/12/20 09:22:28;;;;;;;;;;;20.50;40.40;;;;;;4955790;28;19923;-57
2021/12/20 09:24:54;;;;;;;;;;;20.50;40.40;;;;;;4951492;28;19926;-57
2021/12/20 09:27:23;;;;;;;;;;;20.50;40.30;;;;;;4952237;28;19929;-56
2021/12/20 09:29:49;;;;;;;;;;;20.50;40.30;;;;;;4951622;28;19933;-62
2021/12/20 09:32:17;;;;;;;;;;;20.50;40.30;;;;;;4965996;28;20274;-66
2021/12/20 09:34:44;;;;;;;;;;;20.50;40.30;;;;;;4961553;28;20364;-59
2021/12/20 09:37:11;;;;;;;;;;;20.50;40.30;;;;;;4955692;28;19926;-58
2021/12/20 09:39:39;;;;;;;;;;;20.50;40.30;;;;;;4951659;28;19930;-61
2021/12/20 09:42:06;;;;;;;;;;;20.50;40.30;;;;;;4954857;28;20344;-60
2021/12/20 09:44:34;;;;;;;;;;;20.50;40.30;;;;;;4959913;28;19977;-54
2021/12/20 09:47:01;;;;;;;;;;;20.50;40.30;;;;;;4956500;28;20096;-59
2021/12/20 09:49:29;;;;;;;;;;;20.50;40.30;;;;;;4953737;28;20013;-59
2021/12/20 09:51:57;;;;;;;;;;;20.50;40.30;;;;;;4949847;28;20298;-55
2021/12/20 09:54:24;;;;;;;;;;;20.50;40.30;;;;;;4952133;28;19929;-62
2021/12/20 09:56:52;;;;;;;;;;;20.50;40.30;;;;;;4952582;28;19943;-59
2021/12/20 09:59:19;;;;;;;;;;;20.50;40.30;;;;;;4952411;28;19945;-56
2021/12/20 10:01:48;;;;;;;;;;;20.50;40.40;;;;;;4947430;28;19926;-59
2021/12/20 10:04:15;;;;;;;;;;;20.50;40.30;;;;;;4949440;28;19938;-57
2021/12/20 10:06:42;;;;;;;;;;;20.50;40.40;;;;;;4959882;28;19932;-57
2021/12/20 10:09:13;;;;;;;;;;;20.50;40.30;;;;;;4956700;28;19989;-58
2021/12/20 10:11:39;;;;;;;;;;;20.50;39.70;;;;;;4950834;28;19990;-60
2021/12/20 10:14:06;;;;;;;;;;;20.50;39.30;;;;;;4951367;28;19934;-65
2021/12/20 10:16:34;;;;;;;;;;;20.50;39.30;;;;;;4958023;28;19973;-64
2021/12/20 10:19:03;;;;;;;;;;;20.50;39.30;;;;;;4951018;28;20029;-58
2021/12/20 10:21:39;;;;;;;;;;;20.50;39.30;;;;;;4954268;28;19949;-64
2021/12/20 10:24:06;;;;;;;;;;;20.50;39.40;;;;;;4965208;28;19922;-62
2021/12/20 10:26:40;;;;;;;;;;;20.50;39.50;;;;;;4946527;28;19950;-63
2021/12/20 10:54:42;;;;;;;;;;;20.50;40.30;;;;;;4933917;29;19922;-65
2021/12/20 10:57:09;;;;;;;;;;;20.50;40.30;;;;;;4936189;28;20300;-59
2021/12/20 10:59:36;;;;;;;;;;;20.50;40.40;;;;;;4947991;28;19922;-62
2021/12/20 11:05:58;;;;;;;;;;;20.60;40.60;;;;;;5090068;27;19912;-59
2021/12/20 11:11:10;;;;;;;;;;;20.60;40.70;;;;;;5086196;28;19939;-59
2021/12/20 11:13:37;;;;;;;;;;;20.60;40.70;;;;;;5096925;28;19938;-63
2021/12/20 11:16:19;;;;;;;;;;;20.60;40.70;;;;;;5086277;28;19943;-62
2021/12/20 11:18:45;;;;;;;;;;;20.60;40.80;;;;;;5091139;28;19924;-62
2021/12/20 11:21:14;;;;;;;;;;;20.60;40.80;;;;;;5085978;28;19959;-62
2021/12/20 11:23:41;;;;;;;;;;;20.60;40.90;;;;;;5087442;28;20038;-59
2021/12/20 11:26:08;;;;;;;;;;;20.60;40.90;;;;;;5085766;28;19927;-59
2021/12/20 11:28:34;;;;;;;;;;;20.60;36.90;;;;;;5086249;28;19925;-60
2021/12/20 11:31:03;;;;;;;;;;;20.50;31.80;;;;;;5084510;28;19920;-58
2021/12/20 11:33:30;;;;;;;;;;;20.40;31.80;;;;;;5082866;28;20366;-60
2021/12/20 11:35:57;;;;;;;;;;;20.20;32.90;;;;;;5085819;28;20023;-61
2021/12/20 11:38:25;;;;;;;;;;;20.10;34.20;;;;;;5085401;28;19967;-57
2021/12/20 11:40:52;;;;;;;;;;;20.10;35.50;;;;;;5097456;28;19999;-64
2021/12/20 11:43:18;;;;;;;;;;;20.10;36.30;;;;;;5086452;28;19952;-65
2021/12/20 11:45:45;;;;;;;;;;;20.10;36.80;;;;;;5078402;28;19921;-60
2021/12/20 11:48:13;;;;;;;;;;;20.10;37.20;;;;;;5079404;28;19927;-63
2021/12/20 11:50:40;;;;;;;;;;;20.10;37.60;;;;;;5092462;28;20249;-65
2021/12/20 11:53:08;;;;;;;;;;;20.10;37.80;;;;;;5102687;28;21502;-60
2021/12/20 11:55:36;;;;;;;;;;;20.10;38.10;;;;;;5085569;28;19921;-60
2021/12/20 11:58:03;;;;;;;;;;;20.20;38.30;;;;;;5105317;28;19974;-59
2021/12/20 12:00:30;;;;;;;;;;;20.20;38.50;;;;;;5086296;28;19920;-60
2021/12/20 12:02:58;;;;;;;;;;;20.20;38.60;;;;;;5105290;28;20403;-58
2021/12/20 12:05:29;;;;;;;;;;;20.20;38.80;;;;;;5082169;28;20021;-59
2021/12/20 12:07:55;;;;;;;;;;;20.20;38.90;;;;;;5084961;28;19946;-62
2021/12/20 12:10:28;;;;;;;;;;;20.30;39.00;;;;;;5077380;28;19927;-62
2021/12/20 12:13:01;;;;;;;;;;;20.30;39.10;;;;;;5099217;28;20271;-58
2021/12/20 12:15:39;;;;;;;;;;;20.30;39.20;;;;;;5087174;28;19921;-65
2021/12/20 12:18:10;;;;;;;;;;;20.30;39.30;;;;;;5071179;28;20018;-61
2021/12/20 12:20:42;;;;;;;;;;;20.30;39.30;;;;;;5066054;28;19920;-61
2021/12/20 12:23:10;;;;;;;;;;;20.30;39.40;;;;;;5071775;28;19921;-65
2021/12/20 12:25:37;;;;;;;;;;;20.40;39.50;;;;;;5071239;28;19920;-59
2021/12/20 12:28:05;;;;;;;;;;;20.40;39.60;;;;;;5077696;28;20238;-63
2021/12/20 12:30:39;;;;;;;;;;;20.40;39.60;;;;;;5077340;28;19920;-60
2021/12/20 12:33:28;;;;;;;;;;;20.40;39.70;;;;;;5066226;28;20017;-61
2021/12/20 12:35:56;;;;;;;;;;;20.40;39.70;;;;;;5070094;28;20015;-60
2021/12/20 12:38:25;;;;;;;;;;;20.40;39.80;;;;;;5065937;28;20600;-66
2021/12/20 12:40:52;;;;;;;;;;;20.40;39.80;;;;;;5071275;28;19926;-59
2021/12/20 12:43:26;;;;;;;;;;;20.40;39.80;;;;;;5087599;28;19924;-60
2021/12/20 12:45:53;;;;;;;;;;;20.40;39.90;;;;;;5058280;28;19930;-64
2021/12/20 12:48:35;;;;;;;;;;;20.40;39.90;;;;;;5069801;28;20267;-61
2021/12/20 12:51:06;;;;;;;;;;;20.40;39.90;;;;;;5069763;28;20280;-62
2021/12/20 12:53:40;;;;;;;;;;;20.40;40.00;;;;;;5070032;28;20339;-62
2021/12/20 12:56:28;;;;;;;;;;;20.50;40.00;;;;;;5068650;28;20368;-61
2021/12/20 12:59:14;;;;;;;;;;;20.50;40.10;;;;;;5070183;28;19925;-62
2021/12/20 13:01:48;;;;;;;;;;;20.50;40.10;;;;;;5070482;28;19924;-65
2021/12/20 13:04:15;;;;;;;;;;;20.50;40.10;;;;;;5059278;28;20304;-60
2021/12/20 13:06:41;;;;;;;;;;;20.50;40.20;;;;;;5069822;28;19920;-64
2021/12/20 13:09:08;;;;;;;;;;;20.50;40.20;;;;;;5053386;28;20024;-59
2021/12/20 13:11:35;;;;;;;;;;;20.50;40.20;;;;;;5070514;28;19928;-64
2021/12/20 13:23:34;;;;;;;;;;;20.50;40.30;;;;;;5066670;28;19912;-65
2021/12/20 13:26:01;;;;;;;;;;;20.50;40.30;;;;;;5070489;28;19927;-60
2021/12/20 13:28:30;;;;;;;;;;;20.50;40.30;;;;;;5068763;28;19963;-60
2021/12/20 13:30:57;;;;;;;;;;;20.50;40.40;;;;;;5095394;28;19924;-62
2021/12/20 13:33:24;;;;;;;;;;;20.50;40.30;;;;;;5077133;28;19921;-60
2021/12/20 13:35:52;;;;;;;;;;;20.50;40.40;;;;;;5083946;28;19956;-60
2021/12/20 13:38:20;;;;;;;;;;;20.50;40.40;;;;;;5088231;28;19920;-60
2021/12/20 13:40:50;;;;;;;;;;;20.50;40.40;;;;;;5074254;28;19924;-59
2021/12/20 13:43:22;;;;;;;;;;;20.60;40.60;;;;;;5081318;28;19920;-62
2021/12/20 13:46:10;;;;;;;;;;;20.60;40.60;;;;;;5067245;28;19962;-60
2021/12/20 13:48:39;;;;;;;;;;;20.60;40.60;;;;;;5069267;28;20062;-60
2021/12/20 13:51:08;;;;;;;;;;;20.50;40.50;;;;;;5074612;28;19935;-60
2021/12/20 13:53:34;;;;;;;;;;;20.60;40.60;;;;;;5070650;28;19924;-62
2021/12/20 13:56:04;;;;;;;;;;;20.60;40.60;;;;;;5069421;28;19920;-65
2021/12/20 13:58:31;;;;;;;;;;;20.60;40.70;;;;;;5080609;28;19920;-64
2021/12/20 14:00:58;;;;;;;;;;;20.60;40.70;;;;;;5081152;28;19935;-62
2021/12/20 14:03:24;;;;;;;;;;;20.60;40.70;;;;;;5084104;28;19974;-61
2021/12/20 14:05:51;;;;;;;;;;;20.60;40.70;;;;;;5079310;28;19925;-59
2021/12/20 14:08:21;;;;;;;;;;;20.60;40.70;;;;;;5067793;28;19920;-59
2021/12/20 14:10:47;;;;;;;;;;;20.60;40.70;;;;;;5067262;28;19920;-65
2021/12/20 14:13:17;;;;;;;;;;;20.60;40.70;;;;;;5068544;28;20345;-57
2021/12/20 14:15:44;;;;;;;;;;;20.60;40.70;;;;;;5085605;28;20360;-60
2021/12/20 14:18:11;;;;;;;;;;;20.60;40.70;;;;;;5068526;28;19921;-62
2021/12/20 14:20:39;;;;;;;;;;;20.60;40.80;;;;;;5069640;28;19940;-60
2021/12/20 14:23:06;;;;;;;;;;;20.60;40.70;;;;;;5077639;28;19967;-61
2021/12/20 14:25:33;;;;;;;;;;;20.60;40.70;;;;;;5082198;28;19920;-57
2021/12/20 14:28:01;;;;;;;;;;;20.60;40.80;;;;;;5068723;28;20365;-59
2021/12/20 14:30:29;;;;;;;;;;;20.60;40.80;;;;;;5074281;28;20004;-63
2021/12/20 14:32:56;;;;;;;;;;;20.60;40.80;;;;;;5080530;28;20011;-64
2021/12/20 14:35:23;;;;;;;;;;;20.60;40.90;;;;;;5071603;28;20012;-60
2021/12/20 14:37:50;;;;;;;;;;;20.60;40.90;;;;;;5069084;28;20299;-63
2021/12/20 14:40:32;;;;;;;;;;;20.60;40.90;;;;;;5060141;28;19921;-63
2021/12/20 14:43:02;;;;;;;;;;;20.60;40.90;;;;;;5062013;28;20447;-61
2021/12/20 14:45:31;;;;;;;;;;;20.60;41.00;;;;;;5061351;28;20272;-62
2021/12/20 14:48:12;;;;;;;;;;;20.60;41.00;;;;;;5068931;28;19927;-60
2021/12/20 14:50:43;;;;;;;;;;;20.60;41.10;;;;;;5094370;28;19977;-60
2021/12/20 14:53:13;;;;;;;;;;;20.60;41.10;;;;;;5072055;28;19944;-64
2021/12/20 14:55:40;;;;;;;;;;;20.60;41.10;;;;;;5068359;28;19935;-73
2021/12/20 14:58:07;;;;;;;;;;;20.60;41.10;;;;;;5091398;28;20393;-59
2021/12/20 15:00:35;;;;;;;;;;;20.60;41.10;;;;;;5089601;28;20329;-58
2021/12/20 15:03:02;;;;;;;;;;;20.60;41.10;;;;;;5077658;28;19926;-58
2021/12/20 15:05:29;;;;;;;;;;;20.60;41.10;;;;;;5067879;28;19994;-61
2021/12/20 15:07:56;;;;;;;;;;;20.60;41.10;;;;;;5086015;28;20361;-61
2021/12/20 15:10:23;;;;;;;;;;;20.60;41.20;;;;;;5084347;28;20276;-60
2021/12/20 15:12:50;;;;;;;;;;;20.60;41.20;;;;;;5068404;28;19927;-56